Time;durP1;ratioP1;P1;durP2;ratioP2;P2;SDS_P1;SDS_P2;PMS_P1;PMS_P2;Temp;Humidity;BMP_temperature;BMP_pressure;BME280_temperature;BME280_humidity;BME280_pressure;Samples;Min_cycle;Max_cycle;Signal;HPM_P1;HPM_P2
2021/10/14 00:00:58;;;;;;;20.47;14.80;;;;;;;9.65;85.70;95129.00;5032153;28;20953;-82
2021/10/14 00:03:26;;;;;;;24.97;16.30;;;;;;;9.57;85.90;95126.16;4997199;28;20462;-81
2021/10/14 00:05:53;;;;;;;21.17;15.60;;;;;;;9.55;85.88;95126.28;5032199;28;20483;-81
2021/10/14 00:08:20;;;;;;;20.63;14.73;;;;;;;9.56;86.36;95119.25;4997464;28;20443;-82
2021/10/14 00:10:47;;;;;;;18.07;14.00;;;;;;;9.50;86.76;95112.66;5032042;28;20454;-81
2021/10/14 00:13:14;;;;;;;21.57;15.23;;;;;;;9.51;86.23;95114.34;5032327;28;20465;-82
2021/10/14 00:15:42;;;;;;;18.47;13.83;;;;;;;9.50;86.54;95117.91;5032265;28;21001;-82
2021/10/14 00:18:09;;;;;;;25.07;15.40;;;;;;;9.51;86.11;95122.19;5031986;28;20443;-82
2021/10/14 00:20:38;;;;;;;20.30;15.33;;;;;;;9.45;87.45;95121.84;5032091;28;20454;-81
2021/10/14 00:23:05;;;;;;;23.30;14.67;;;;;;;9.46;87.57;95124.34;5031780;28;20824;-81
2021/10/14 00:25:32;;;;;;;23.37;14.40;;;;;;;9.35;87.66;95126.97;5032151;28;20478;-82
2021/10/14 00:27:59;;;;;;;18.47;14.63;;;;;;;9.42;88.25;95122.06;5032129;28;20447;-81
2021/10/14 00:30:26;;;;;;;23.20;15.67;;;;;;;9.37;88.32;95132.06;5032093;28;20453;-82
2021/10/14 00:32:53;;;;;;;19.13;15.13;;;;;;;9.42;88.09;95132.56;5031953;28;20450;-82
2021/10/14 00:35:20;;;;;;;19.67;15.20;;;;;;;9.44;88.70;95134.09;4996899;28;20803;-82
2021/10/14 00:37:49;;;;;;;19.73;16.07;;;;;;;9.50;88.57;95130.16;5031651;28;20454;-82
2021/10/14 00:40:17;;;;;;;22.60;16.30;;;;;;;9.45;88.35;95121.84;5031708;28;20447;-81
2021/10/14 00:42:45;;;;;;;22.13;16.60;;;;;;;9.42;88.35;95114.22;5031796;28;20450;-82
2021/10/14 00:45:12;;;;;;;23.33;17.23;;;;;;;9.44;88.02;95122.78;5031648;28;20940;-81
2021/10/14 00:47:39;;;;;;;25.63;16.30;;;;;;;9.38;88.52;95116.25;5031739;28;20449;-82
2021/10/14 00:50:07;;;;;;;25.83;17.70;;;;;;;9.30;89.28;95108.97;5031813;28;20443;-81
2021/10/14 00:52:36;;;;;;;20.13;15.80;;;;;;;9.29;89.41;95112.56;5031941;28;20449;-82
2021/10/14 00:55:05;;;;;;;23.00;17.43;;;;;;;9.28;89.59;95115.28;5031528;28;20786;-81
2021/10/14 00:57:33;;;;;;;23.93;17.03;;;;;;;9.23;90.83;95112.16;5013702;28;20447;-82
2021/10/14 01:00:00;;;;;;;28.73;18.37;;;;;;;9.26;90.91;95123.25;5033223;28;20976;-82
2021/10/14 01:02:27;;;;;;;22.90;16.27;;;;;;;9.18;90.77;95124.78;5035348;28;20443;-81
2021/10/14 01:04:55;;;;;;;23.67;17.57;;;;;;;9.20;91.18;95128.94;5035547;28;20483;-82
2021/10/14 01:07:23;;;;;;;28.13;18.73;;;;;;;9.18;91.22;95125.59;5035722;28;20479;-82
2021/10/14 01:09:50;;;;;;;26.10;19.00;;;;;;;9.27;91.88;95124.94;5035543;28;20454;-82
2021/10/14 01:12:19;;;;;;;22.37;16.20;;;;;;;9.28;91.41;95131.00;5032982;28;20447;-81
2021/10/14 01:14:46;;;;;;;25.40;16.97;;;;;;;9.24;92.05;95133.00;5035219;28;20888;-81
2021/10/14 01:17:13;;;;;;;26.30;16.40;;;;;;;9.22;92.24;95137.50;5000017;28;20950;-81
2021/10/14 01:19:42;;;;;;;26.40;18.47;;;;;;;9.24;92.42;95134.78;5035216;28;20779;-82
2021/10/14 01:22:09;;;;;;;25.93;18.00;;;;;;;9.14;91.62;95129.41;5034998;28;20442;-82
2021/10/14 01:24:37;;;;;;;25.93;18.27;;;;;;;9.12;91.97;95135.72;5000317;28;20443;-81
2021/10/14 01:27:05;;;;;;;23.63;17.70;;;;;;;9.07;92.54;95128.22;5032453;28;20487;-82
2021/10/14 01:29:32;;;;;;;26.57;18.07;;;;;;;8.98;92.99;95128.91;5034855;28;20945;-81
2021/10/14 01:31:59;;;;;;;22.17;16.60;;;;;;;8.95;92.75;95124.72;5035028;28;20450;-81
2021/10/14 01:34:26;;;;;;;23.53;18.90;;;;;;;8.95;93.56;95129.94;5035114;28;20449;-81
2021/10/14 01:36:55;;;;;;;26.10;17.67;;;;;;;8.98;92.87;95132.34;5035084;28;20473;-82
2021/10/14 01:39:21;;;;;;;24.23;17.17;;;;;;;9.03;93.67;95125.94;5034805;28;20457;-82
2021/10/14 01:41:49;;;;;;;23.50;15.93;;;;;;;9.11;94.13;95129.63;5034530;28;20953;-81
2021/10/14 01:44:16;;;;;;;25.87;17.80;;;;;;;9.06;93.51;95131.78;5034708;28;20795;-81
2021/10/14 01:46:43;;;;;;;26.30;18.53;;;;;;;9.08;93.28;95127.25;5032541;28;21028;-80
2021/10/14 01:49:10;;;;;;;23.43;17.27;;;;;;;9.10;93.45;95117.50;5034505;28;20439;-82
2021/10/14 01:51:37;;;;;;;22.10;17.20;;;;;;;9.04;93.74;95132.84;5034629;28;20439;-82
2021/10/14 01:54:05;;;;;;;30.53;18.57;;;;;;;8.98;94.55;95121.06;5034697;28;20438;-81
2021/10/14 01:56:32;;;;;;;25.20;18.03;;;;;;;8.99;94.82;95126.16;5032318;28;20951;-81
2021/10/14 01:58:59;;;;;;;24.43;18.47;;;;;;;9.01;95.29;95126.06;5034668;28;20810;-81
2021/10/14 02:01:26;;;;;;;23.83;17.70;;;;;;;9.04;95.97;95138.91;5034453;28;20439;-81
2021/10/14 02:03:53;;;;;;;19.17;15.73;;;;;;;9.09;96.06;95138.56;5034373;28;20954;-81
2021/10/14 02:06:20;;;;;;;23.60;16.67;;;;;;;9.07;95.55;95136.06;5032029;28;20545;-82
2021/10/14 02:08:47;;;;;;;21.80;16.27;;;;;;;9.08;95.87;95140.34;5034261;28;20451;-81
2021/10/14 02:11:15;;;;;;;21.67;17.47;;;;;;;9.10;96.14;95137.59;5033629;28;20799;-82
2021/10/14 02:13:42;;;;;;;21.60;16.93;;;;;;;9.08;95.85;95142.13;5033984;28;20454;-81
2021/10/14 02:16:09;;;;;;;23.73;16.80;;;;;;;9.04;96.00;95138.06;5034011;28;20976;-82
2021/10/14 02:18:36;;;;;;;24.77;17.70;;;;;;;9.03;95.92;95142.47;5034192;28;20458;-82
2021/10/14 02:21:03;;;;;;;27.50;18.03;;;;;;;9.00;96.55;95138.31;5033976;28;20451;-82
2021/10/14 02:23:30;;;;;;;27.50;16.57;;;;;;;8.94;96.71;95151.81;5033880;28;20454;-81
2021/10/14 02:25:57;;;;;;;23.07;15.90;;;;;;;8.92;97.33;95142.41;5034112;28;20927;-81
2021/10/14 02:28:25;;;;;;;27.60;17.57;;;;;;;8.96;97.20;95147.34;5033818;28;20455;-81
2021/10/14 02:30:52;;;;;;;24.97;17.13;;;;;;;8.94;97.94;95143.97;5033720;28;20448;-81
2021/10/14 02:33:19;;;;;;;21.83;16.30;;;;;;;8.92;97.85;95148.50;5033759;28;20793;-81
2021/10/14 02:35:46;;;;;;;23.03;16.90;;;;;;;8.87;97.88;95152.41;5033737;28;20458;-82
2021/10/14 02:38:12;;;;;;;25.77;16.43;;;;;;;8.81;98.84;95152.84;5033688;28;20447;-81
2021/10/14 02:40:39;;;;;;;21.70;14.80;;;;;;;8.67;99.38;95151.25;5033632;28;20447;-82
2021/10/14 02:43:06;;;;;;;23.93;17.23;;;;;;;8.62;99.77;95154.19;4998728;28;20465;-81
2021/10/14 02:45:35;;;;;;;22.77;17.40;;;;;;;8.61;100.00;95151.69;5033907;28;20445;-80
2021/10/14 02:48:02;;;;;;;22.83;17.87;;;;;;;8.61;100.00;95160.38;5033201;28;21013;-81
2021/10/14 02:50:29;;;;;;;21.40;17.43;;;;;;;8.55;100.00;95158.22;5033606;28;20450;-81
2021/10/14 02:52:56;;;;;;;20.27;15.93;;;;;;;8.45;100.00;95162.44;5033361;28;20458;-81
2021/10/14 02:55:23;;;;;;;24.20;16.60;;;;;;;8.40;100.00;95161.94;5033362;28;20450;-81
2021/10/14 02:57:50;;;;;;;26.20;16.43;;;;;;;8.34;100.00;95167.59;5031057;28;20803;-81
2021/10/14 03:00:17;;;;;;;20.80;16.43;;;;;;;8.25;100.00;95169.06;5033405;28;20806;-81
2021/10/14 03:02:45;;;;;;;20.27;16.93;;;;;;;8.27;100.00;95176.78;5033288;28;20443;-81
2021/10/14 03:05:12;;;;;;;23.33;17.97;;;;;;;8.18;100.00;95172.22;5033267;28;20466;-81
2021/10/14 03:07:39;;;;;;;22.80;17.90;;;;;;;8.25;100.00;95176.91;5033192;28;20482;-80
2021/10/14 03:10:07;;;;;;;22.70;16.80;;;;;;;8.23;100.00;95173.56;5014422;28;20442;-81
2021/10/14 03:12:34;;;;;;;23.47;17.33;;;;;;;8.24;100.00;95177.00;5033011;28;20953;-81
2021/10/14 03:15:01;;;;;;;21.40;17.47;;;;;;;8.22;100.00;95184.13;5030811;28;20450;-81
2021/10/14 03:17:28;;;;;;;26.60;15.97;;;;;;;8.29;100.00;95180.13;5033237;28;20450;-81
2021/10/14 03:19:56;;;;;;;32.60;17.30;;;;;;;8.33;100.00;95190.28;5032689;28;20924;-80
2021/10/14 03:22:23;;;;;;;24.80;16.33;;;;;;;8.42;100.00;95185.38;5032565;28;20554;-81
2021/10/14 03:24:50;;;;;;;24.17;15.80;;;;;;;8.41;100.00;95181.91;5032451;28;20447;-81
2021/10/14 03:27:17;;;;;;;23.53;16.27;;;;;;;8.41;100.00;95187.16;5032737;28;20506;-81
2021/10/14 03:29:44;;;;;;;27.43;16.40;;;;;;;8.43;100.00;95182.66;5032716;28;20446;-81
2021/10/14 03:32:11;;;;;;;23.20;15.13;;;;;;;8.48;100.00;95188.38;5032560;28;20450;-81
2021/10/14 03:34:37;;;;;;;24.57;16.70;;;;;;;8.49;100.00;95186.59;5032681;28;20446;-80
2021/10/14 03:37:06;;;;;;;19.93;16.40;;;;;;;8.45;100.00;95185.97;4997816;28;20810;-81
2021/10/14 03:39:33;;;;;;;18.70;14.60;;;;;;;8.41;100.00;95181.91;5032484;28;20991;-81
2021/10/14 03:41:59;;;;;;;22.40;16.77;;;;;;;8.49;100.00;95184.81;5032379;28;20450;-81
2021/10/14 03:44:26;;;;;;;22.83;15.40;;;;;;;8.51;100.00;95182.91;5032448;28;20517;-81
2021/10/14 03:46:53;;;;;;;20.30;16.80;;;;;;;8.49;100.00;95187.44;4997592;28;20482;-81
2021/10/14 03:49:20;;;;;;;21.27;15.53;;;;;;;8.51;100.00;95190.75;5032351;28;20963;-80
2021/10/14 03:51:47;;;;;;;24.70;16.00;;;;;;;8.56;100.00;95185.19;5030219;28;20431;-81
2021/10/14 03:54:15;;;;;;;19.17;15.37;;;;;;;8.58;100.00;95180.69;5032366;28;21131;-81
2021/10/14 03:56:42;;;;;;;21.93;16.57;;;;;;;8.58;100.00;95194.59;5032148;28;20463;-81
2021/10/14 03:59:09;;;;;;;21.70;16.93;;;;;;;8.53;100.00;95196.72;5032132;28;20952;-80
2021/10/14 04:01:37;;;;;;;21.73;15.57;;;;;;;8.55;100.00;95201.84;5032115;28;20450;-81
2021/10/14 04:04:08;;;;;;;19.53;14.50;;;;;;;8.53;100.00;95191.50;5031971;28;20451;-81
2021/10/14 04:06:35;;;;;;;18.43;13.83;;;;;;;8.54;100.00;95198.38;5031776;28;20501;-81
2021/10/14 04:09:02;;;;;;;18.07;13.87;;;;;;;8.53;100.00;95203.72;5032192;28;20448;-81
2021/10/14 04:11:30;;;;;;;25.93;18.30;;;;;;;8.47;100.00;95205.00;5032577;28;20462;-81
2021/10/14 04:13:57;;;;;;;20.00;13.80;;;;;;;8.48;100.00;95203.22;5032251;28;20811;-81
2021/10/14 04:16:24;;;;;;;22.10;13.63;;;;;;;8.38;100.00;95205.66;5032285;28;20447;-81
2021/10/14 04:18:51;;;;;;;16.63;12.27;;;;;;;8.46;100.00;95212.97;5032072;28;20807;-82
2021/10/14 04:21:17;;;;;;;14.17;11.83;;;;;;;8.53;100.00;95203.72;5032027;28;20447;-81
2021/10/14 04:23:44;;;;;;;15.67;11.50;;;;;;;8.63;100.00;95205.56;5033128;28;20530;-81
2021/10/14 04:26:12;;;;;;;15.30;11.90;;;;;;;8.62;100.00;95213.53;5033231;28;20845;-80
2021/10/14 04:28:40;;;;;;;19.23;13.40;;;;;;;8.49;100.00;95210.13;5033963;28;20997;-80
2021/10/14 04:31:07;;;;;;;19.33;13.70;;;;;;;8.44;100.00;95207.84;5051087;28;20448;-81
2021/10/14 04:33:34;;;;;;;21.93;15.93;;;;;;;8.34;100.00;95209.44;5019843;28;20438;-79
2021/10/14 04:36:02;;;;;;;27.87;19.03;;;;;;;8.33;100.00;95211.22;5057010;28;20758;-80
2021/10/14 04:38:29;;;;;;;21.77;15.47;;;;;;;8.35;100.00;95214.53;5056635;28;20450;-81
2021/10/14 04:40:56;;;;;;;21.30;13.67;;;;;;;8.30;100.00;95215.78;5056519;28;20452;-81
2021/10/14 04:43:23;;;;;;;18.13;12.83;;;;;;;8.30;100.00;95210.56;5056847;28;20430;-81
2021/10/14 04:45:52;;;;;;;21.00;15.30;;;;;;;8.37;100.00;95215.28;5056870;28;20449;-80
2021/10/14 04:48:19;;;;;;;20.77;14.40;;;;;;;8.44;100.00;95226.16;5057044;28;21003;-80
2021/10/14 04:50:46;;;;;;;21.50;15.00;;;;;;;8.44;100.00;95223.53;5057203;28;20460;-80
2021/10/14 04:53:13;;;;;;;16.67;13.57;;;;;;;8.43;100.00;95224.47;5056732;28;20781;-80
2021/10/14 04:55:40;;;;;;;16.67;13.07;;;;;;;8.42;100.00;95221.97;5056908;28;20442;-80
2021/10/14 04:58:07;;;;;;;17.20;12.83;;;;;;;8.45;100.00;95230.44;5056923;28;20454;-82
2021/10/14 05:00:34;;;;;;;18.43;14.73;;;;;;;8.47;100.00;95228.56;5056405;28;20437;-81
2021/10/14 05:03:02;;;;;;;22.60;14.43;;;;;;;8.42;100.00;95233.28;5037536;28;20444;-81
2021/10/14 05:05:30;;;;;;;27.13;19.50;;;;;;;8.52;100.00;95234.28;5051981;28;20954;-80
2021/10/14 05:07:57;;;;;;;23.97;16.20;;;;;;;8.47;100.00;95228.56;5043142;28;20232;-80
2021/10/14 05:10:24;;;;;;;21.07;17.00;;;;;;;8.49;100.00;95234.50;5056382;28;20774;-80
2021/10/14 05:12:51;;;;;;;20.17;14.70;;;;;;;8.58;100.00;95231.22;5055920;28;20524;-80
2021/10/14 05:15:18;;;;;;;18.90;14.03;;;;;;;8.63;100.00;95239.56;5056190;28;20449;-81
2021/10/14 05:17:45;;;;;;;20.37;14.50;;;;;;;8.67;100.00;95238.44;5037411;28;20438;-80
2021/10/14 05:20:13;;;;;;;21.30;15.80;;;;;;;8.71;100.00;95241.66;5056121;28;20446;-80
2021/10/14 05:22:40;;;;;;;20.63;15.40;;;;;;;8.73;100.00;95233.69;5056206;28;20529;-80
2021/10/14 05:25:08;;;;;;;16.27;12.33;;;;;;;8.80;100.00;95238.38;5056429;28;20451;-80
2021/10/14 05:27:35;;;;;;;22.07;14.73;;;;;;;8.84;100.00;95238.97;5059773;28;20533;-80
2021/10/14 05:30:02;;;;;;;27.97;18.87;;;;;;;8.86;100.00;95240.53;5055675;28;20948;-80
2021/10/14 05:32:29;;;;;;;25.47;19.67;;;;;;;8.87;99.90;95238.75;5021509;28;20442;-81
2021/10/14 05:34:59;;;;;;;30.20;17.77;;;;;;;8.86;98.86;95239.69;5020940;28;20446;-81
2021/10/14 05:37:27;;;;;;;34.70;19.57;;;;;;;8.90;98.98;95249.00;5056208;28;20461;-81
2021/10/14 05:39:54;;;;;;;47.30;24.57;;;;;;;8.92;98.43;95250.56;5056080;28;20514;-80
2021/10/14 05:42:21;;;;;;;30.60;17.23;;;;;;;8.96;98.44;95251.16;5055742;28;20438;-80
2021/10/14 05:44:48;;;;;;;20.83;13.70;;;;;;;8.85;98.19;95249.34;5035671;28;20461;-80
2021/10/14 05:47:15;;;;;;;14.80;11.63;;;;;;;8.87;98.53;95257.91;5055458;28;20488;-81
2021/10/14 05:49:42;;;;;;;20.80;14.27;;;;;;;8.87;98.56;95257.91;5055580;28;20442;-80
2021/10/14 05:52:09;;;;;;;15.17;12.07;;;;;;;8.85;98.62;95253.72;5055829;28;20931;-80
2021/10/14 05:54:38;;;;;;;24.70;13.27;;;;;;;8.80;98.21;95256.69;5055467;28;20446;-81
2021/10/14 05:57:04;;;;;;;11.27;9.37;;;;;;;8.76;98.53;95255.25;5055598;28;20930;-80
2021/10/14 05:59:31;;;;;;;10.60;8.70;;;;;;;8.78;98.38;95268.22;5055691;28;20427;-81
2021/10/14 06:01:58;;;;;;;15.53;10.60;;;;;;;8.80;98.43;95267.16;5055449;28;20446;-80
2021/10/14 06:04:25;;;;;;;21.20;15.00;;;;;;;8.75;98.60;95274.50;5055127;28;20442;-80
2021/10/14 06:06:52;;;;;;;14.07;10.07;;;;;;;8.70;97.78;95281.84;5036641;28;20436;-80
2021/10/14 06:09:19;;;;;;;10.97;8.50;;;;;;;8.68;98.42;95283.75;5055331;28;20965;-80
2021/10/14 06:11:47;;;;;;;11.33;8.97;;;;;;;8.68;98.53;95288.97;5055194;28;20442;-80
2021/10/14 06:14:16;;;;;;;10.60;8.97;;;;;;;8.67;98.43;95300.34;5055400;28;20449;-80
2021/10/14 06:16:42;;;;;;;13.90;10.50;;;;;;;8.64;98.86;95285.72;5055043;28;20458;-80
2021/10/14 06:19:10;;;;;;;12.03;10.57;;;;;;;8.69;98.91;95298.50;5054973;28;20799;-80
2021/10/14 06:21:37;;;;;;;14.30;11.87;;;;;;;8.69;99.27;95296.72;5055225;28;20468;-79
2021/10/14 06:24:05;;;;;;;14.20;10.70;;;;;;;8.61;98.87;95304.25;5055386;28;20450;-81
2021/10/14 06:26:32;;;;;;;17.53;12.40;;;;;;;8.52;99.93;95307.50;5054984;28;20446;-80
2021/10/14 06:29:00;;;;;;;16.17;9.93;;;;;;;8.52;99.59;95302.28;5054623;28;20489;-80
2021/10/14 06:31:27;;;;;;;11.97;9.60;;;;;;;8.50;100.00;95300.72;5053761;28;20440;-80
2021/10/14 06:33:54;;;;;;;552.63;299.43;;;;;;;8.56;99.69;95306.34;5054142;28;20442;-80
2021/10/14 06:36:21;;;;;;;24.17;16.73;;;;;;;8.55;99.89;95311.69;5054202;28;20448;-81
2021/10/14 06:38:48;;;;;;;14.90;12.83;;;;;;;8.54;99.71;95317.88;5054151;28;20830;-81
2021/10/14 06:41:15;;;;;;;20.53;13.10;;;;;;;8.55;99.63;95309.91;5054062;28;20450;-80
2021/10/14 06:43:42;;;;;;;14.13;12.10;;;;;;;8.40;99.34;95331.91;5054053;28;20454;-80
2021/10/14 06:46:11;;;;;;;13.93;11.30;;;;;;;8.33;99.21;95321.03;5053847;28;20442;-81
2021/10/14 06:48:38;;;;;;;10.67;9.57;;;;;;;8.30;99.31;95322.97;5053222;28;20486;-80
2021/10/14 06:51:05;;;;;;;8.47;7.53;;;;;;;8.20;98.72;95324.56;5053838;28;20449;-82
2021/10/14 06:53:33;;;;;;;15.93;9.67;;;;;;;8.16;99.64;95328.34;5053924;28;20450;-81
2021/10/14 06:56:01;;;;;;;13.57;8.93;;;;;;;8.16;99.66;95325.72;5053112;28;20821;-81
2021/10/14 06:58:28;;;;;;;12.07;8.27;;;;;;;8.14;100.00;95330.22;5053671;28;20453;-82
2021/10/14 07:00:55;;;;;;;12.10;8.20;;;;;;;8.07;99.97;95335.00;5054017;28;20448;-81
2021/10/14 07:03:24;;;;;;;22.07;13.40;;;;;;;8.01;99.73;95335.41;5035463;28;20446;-81
2021/10/14 07:05:51;;;;;;;15.87;10.07;;;;;;;7.92;99.66;95338.66;5054049;28;20484;-81
2021/10/14 07:08:18;;;;;;;8.70;7.07;;;;;;;7.93;99.91;95342.94;5054213;28;20477;-80
2021/10/14 07:10:47;;;;;;;10.93;7.20;;;;;;;7.84;99.10;95352.25;5053733;28;21449;-79
2021/10/14 07:13:14;;;;;;;8.77;6.50;;;;;;;7.78;98.87;95350.03;5053921;28;20450;-80
2021/10/14 07:15:41;;;;;;;10.13;8.90;;;;;;;7.79;99.46;95349.09;5018955;28;20457;-80
2021/10/14 07:18:09;;;;;;;15.80;10.30;;;;;;;7.82;99.95;95348.91;5054029;28;20450;-80
2021/10/14 07:20:37;;;;;;;12.97;8.80;;;;;;;7.86;100.00;95347.75;5053683;28;20452;-80
2021/10/14 07:23:10;;;;;;;7.97;6.23;;;;;;;7.90;99.35;95344.00;5053503;28;20533;-80
2021/10/14 07:25:37;;;;;;;10.50;9.20;;;;;;;7.94;99.00;95350.69;5053488;28;20938;-80
2021/10/14 07:28:05;;;;;;;8.23;7.40;;;;;;;7.94;99.19;95340.22;5053488;28;20482;-80
2021/10/14 07:30:32;;;;;;;10.23;7.70;;;;;;;7.86;99.17;95337.31;5034785;28;20469;-81
2021/10/14 07:33:03;;;;;;;7.90;6.40;;;;;;;7.80;99.24;95326.41;5053542;28;20938;-81
2021/10/14 07:35:31;;;;;;;12.50;7.00;;;;;;;7.74;98.79;95340.72;5053812;28;20450;-81
2021/10/14 07:38:02;;;;;;;10.90;7.40;;;;;;;7.75;98.59;95337.16;5053248;28;20472;-80
2021/10/14 07:40:30;;;;;;;5.33;4.90;;;;;;;7.70;98.67;95337.47;5053848;28;20442;-80
2021/10/14 07:42:57;;;;;;;5.13;4.60;;;;;;;7.72;99.11;95345.22;5053182;28;20454;-81
2021/10/14 07:45:24;;;;;;;6.10;5.10;;;;;;;7.68;98.91;95341.13;5052485;28;20442;-80
2021/10/14 07:47:51;;;;;;;5.53;4.93;;;;;;;7.72;99.64;95351.28;5037878;28;20498;-81
2021/10/14 07:50:18;;;;;;;7.20;5.37;;;;;;;7.79;100.00;95346.47;5053065;28;21425;-80
2021/10/14 07:52:45;;;;;;;7.03;6.27;;;;;;;7.82;100.00;95350.69;5053154;28;20446;-81
2021/10/14 07:55:13;;;;;;;7.83;6.97;;;;;;;7.86;100.00;95355.59;5053313;28;20453;-81
2021/10/14 07:57:40;;;;;;;10.93;7.80;;;;;;;7.90;100.00;95351.84;5053430;28;20544;-80
2021/10/14 08:00:09;;;;;;;9.90;8.17;;;;;;;7.90;99.93;95354.44;5053469;28;20533;-80
2021/10/14 08:02:35;;;;;;;28.03;13.13;;;;;;;7.93;100.00;95354.25;5053189;28;20787;-80
2021/10/14 08:05:02;;;;;;;11.60;6.87;;;;;;;7.89;100.00;95351.94;5017838;28;20470;-80
2021/10/14 08:07:30;;;;;;;8.03;6.97;;;;;;;7.89;98.93;95355.38;5033912;28;20523;-80
2021/10/14 08:09:57;;;;;;;14.60;9.87;;;;;;;7.78;97.17;95361.31;5052869;28;20450;-80
2021/10/14 08:12:25;;;;;;;12.10;7.80;;;;;;;7.76;97.66;95357.13;5053001;28;20450;-81
2021/10/14 08:14:52;;;;;;;8.73;6.57;;;;;;;7.79;97.67;95356.91;5053169;28;20468;-81
2021/10/14 08:17:19;;;;;;;8.13;5.73;;;;;;;7.81;97.97;95355.06;5052826;28;20797;-81
2021/10/14 08:19:46;;;;;;;17.73;8.20;;;;;;;7.73;98.01;95349.50;5052625;28;21104;-81
2021/10/14 08:22:13;;;;;;;14.63;8.67;;;;;;;7.70;99.17;95352.31;5052701;28;20476;-80
2021/10/14 08:24:40;;;;;;;9.33;7.37;;;;;;;7.81;98.98;95349.84;5053210;28;20521;-80
2021/10/14 08:27:07;;;;;;;8.20;6.43;;;;;;;7.72;97.54;95347.81;5052843;28;20441;-80
2021/10/14 08:29:36;;;;;;;9.90;6.57;;;;;;;7.78;97.26;95347.41;5017615;28;20492;-80
2021/10/14 08:32:04;;;;;;;7.63;5.20;;;;;;;7.71;96.57;95343.53;5052819;28;20938;-81
2021/10/14 08:34:31;;;;;;;6.73;5.83;;;;;;;7.73;96.64;95347.72;5053245;28;20532;-81
2021/10/14 08:36:58;;;;;;;9.23;5.60;;;;;;;7.75;97.16;95343.22;5034272;28;20918;-81
2021/10/14 08:39:25;;;;;;;15.47;8.70;;;;;;;7.67;96.38;95339.47;5052750;28;20442;-80
2021/10/14 08:41:52;;;;;;;10.20;5.60;;;;;;;7.64;96.58;95340.50;5052631;28;20441;-81
2021/10/14 08:44:25;;;;;;;5.53;5.07;;;;;;;7.61;96.27;95338.09;5052264;28;20450;-82
2021/10/14 08:46:54;;;;;;;8.40;6.43;;;;;;;7.54;96.10;95326.38;5052373;28;20446;-81
2021/10/14 08:49:21;;;;;;;6.83;6.20;;;;;;;7.55;96.76;95337.66;5052305;28;20486;-82
2021/10/14 08:51:48;;;;;;;8.57;6.17;;;;;;;7.57;96.99;95333.19;5017661;28;20526;-81
2021/10/14 08:54:15;;;;;;;8.70;6.00;;;;;;;7.61;96.93;95339.88;5051781;28;20446;-81
2021/10/14 08:56:44;;;;;;;9.03;6.20;;;;;;;7.63;97.00;95338.00;5052191;28;20922;-80
2021/10/14 08:59:14;;;;;;;7.10;5.80;;;;;;;7.69;96.91;95343.63;5052499;28;20442;-81
2021/10/14 09:01:41;;;;;;;7.40;5.23;;;;;;;7.74;95.84;95348.56;5052172;28;20985;-79
2021/10/14 09:04:18;;;;;;;6.57;5.73;;;;;;;7.70;95.70;95347.09;5051573;28;20525;-80
2021/10/14 09:06:45;;;;;;;6.47;5.57;;;;;;;7.74;95.37;95344.16;5052520;28;20828;-80
2021/10/14 09:09:12;;;;;;;7.67;5.87;;;;;;;7.83;96.01;95347.13;5052826;28;20482;-82
2021/10/14 09:11:39;;;;;;;5.70;5.13;;;;;;;7.90;96.03;95349.22;5052728;28;20449;-80
2021/10/14 09:14:08;;;;;;;8.80;5.70;;;;;;;8.00;96.17;95338.97;5047027;28;20786;-80
2021/10/14 09:16:37;;;;;;;5.70;5.20;;;;;;;8.07;95.92;95341.06;5010558;28;20447;-80
2021/10/14 09:19:16;;;;;;;4.87;4.47;;;;;;;8.06;94.37;95341.16;5040255;28;20447;-80
2021/10/14 09:21:46;;;;;;;8.20;6.23;;;;;;;8.05;93.04;95348.19;5044778;28;20474;-80
2021/10/14 09:24:32;;;;;;;5.53;4.27;;;;;;;7.92;92.18;95351.72;5041817;28;20450;-80
2021/10/14 09:27:01;;;;;;;3.50;3.20;;;;;;;7.87;92.12;95348.59;5042977;28;20852;-81
2021/10/14 09:29:29;;;;;;;4.60;3.40;;;;;;;7.83;91.95;95354.97;5037348;28;20490;-80
2021/10/14 09:31:59;;;;;;;6.53;4.50;;;;;;;7.83;92.05;95355.81;5036019;28;20439;-80
2021/10/14 09:34:30;;;;;;;7.30;4.50;;;;;;;7.79;92.33;95356.91;5035837;28;20523;-80
2021/10/14 09:36:58;;;;;;;5.43;4.90;;;;;;;7.85;92.71;95353.94;5035889;28;20957;-80
2021/10/14 09:39:25;;;;;;;4.93;4.40;;;;;;;7.84;92.88;95347.03;5040768;28;20539;-80
2021/10/14 09:41:54;;;;;;;4.70;4.00;;;;;;;7.78;91.96;95355.25;5026460;28;20782;-80
2021/10/14 09:44:22;;;;;;;4.90;3.73;;;;;;;7.85;92.31;95345.25;5035682;28;20537;-79
2021/10/14 09:46:51;;;;;;;5.33;4.13;;;;;;;7.84;91.42;95343.56;5035621;28;20916;-80
2021/10/14 09:49:22;;;;;;;4.50;2.90;;;;;;;7.70;90.32;95339.25;5035496;28;20478;-80
2021/10/14 09:51:51;;;;;;;4.10;3.10;;;;;;;7.59;91.04;95336.53;5036303;28;20862;-80
2021/10/14 09:54:18;;;;;;;3.60;3.30;;;;;;;7.54;91.48;95334.22;5035594;28;20565;-79
2021/10/14 09:56:46;;;;;;;4.20;3.13;;;;;;;7.51;91.68;95344.00;5035826;28;20462;-80
2021/10/14 09:59:12;;;;;;;3.37;3.07;;;;;;;7.54;92.30;95347.28;5000657;28;20473;-80
2021/10/14 10:01:41;;;;;;;3.17;2.87;;;;;;;7.57;91.81;95344.47;5035334;28;20455;-80
2021/10/14 10:04:09;;;;;;;3.40;3.10;;;;;;;7.52;91.43;95341.31;5035001;28;20534;-80
2021/10/14 10:06:38;;;;;;;2.60;2.40;;;;;;;7.41;90.42;95339.38;5035831;28;20510;-79
2021/10/14 10:09:11;;;;;;;3.27;2.97;;;;;;;7.34;92.07;95335.50;5034127;28;20489;-80
2021/10/14 10:11:42;;;;;;;3.77;3.37;;;;;;;7.40;92.28;95339.50;4999751;28;20446;-80
2021/10/14 10:14:10;;;;;;;3.30;2.97;;;;;;;7.38;92.28;95343.97;5034083;28;20447;-81
2021/10/14 10:16:37;;;;;;;3.60;3.10;;;;;;;7.32;91.91;95342.59;5034167;28;20825;-82
2021/10/14 10:19:07;;;;;;;4.90;3.73;;;;;;;7.38;92.14;95341.38;5050455;28;20461;-80
2021/10/14 10:21:41;;;;;;;5.23;3.10;;;;;;;7.40;92.94;95337.72;5053027;28;20806;-80
2021/10/14 10:24:27;;;;;;;6.73;4.93;;;;;;;7.39;91.88;95337.81;5054107;28;20445;-80
2021/10/14 10:26:56;;;;;;;6.83;6.10;;;;;;;7.43;91.91;95336.69;5051193;28;20454;-80
2021/10/14 10:29:44;;;;;;;5.53;5.00;;;;;;;7.52;93.18;95332.63;5038100;28;20637;-80
2021/10/14 10:32:22;;;;;;;6.30;5.10;;;;;;;7.57;93.12;95328.78;5042261;28;20452;-80
2021/10/14 10:34:56;;;;;;;4.17;3.77;;;;;;;7.58;93.08;95321.78;5005455;28;20454;-80
2021/10/14 10:37:33;;;;;;;6.43;5.90;;;;;;;7.50;92.07;95319.66;5037668;28;20463;-80
2021/10/14 10:40:10;;;;;;;9.97;6.87;;;;;;;7.47;91.85;95314.66;5033466;28;20504;-80
2021/10/14 10:42:40;;;;;;;4.93;4.33;;;;;;;7.52;92.64;95309.13;5033589;28;20544;-79
2021/10/14 10:45:09;;;;;;;4.07;3.67;;;;;;;7.50;92.82;95308.38;5033460;28;20447;-79
2021/10/14 10:47:47;;;;;;;3.60;3.20;;;;;;;7.47;92.54;95312.88;5033608;28;20454;-80
2021/10/14 10:50:17;;;;;;;8.40;3.13;;;;;;;7.54;92.00;95300.28;5033660;28;20483;-80
2021/10/14 10:52:45;;;;;;;4.13;3.80;;;;;;;7.58;92.48;95306.13;5033533;28;20439;-81
2021/10/14 10:55:33;;;;;;;8.30;7.23;;;;;;;7.62;92.84;95302.38;5033290;28;20450;-80
2021/10/14 10:58:02;;;;;;;5.77;4.60;;;;;;;7.61;92.89;95304.16;5031574;28;20443;-80
2021/10/14 11:00:29;;;;;;;5.10;4.70;;;;;;;7.54;92.95;95299.44;5033642;28;20447;-80
2021/10/14 11:03:11;;;;;;;5.20;4.27;;;;;;;7.53;91.83;95303.81;5032908;28;20822;-79
2021/10/14 11:05:43;;;;;;;4.40;4.00;;;;;;;7.55;91.60;95301.13;5033117;28;20489;-80
2021/10/14 11:08:12;;;;;;;4.80;3.87;;;;;;;7.57;91.66;95305.28;5032910;28;20455;-80
2021/10/14 11:10:40;;;;;;;4.00;3.70;;;;;;;7.56;92.07;95303.63;5032882;28;20494;-80
2021/10/14 11:13:07;;;;;;;4.10;3.70;;;;;;;7.60;91.25;95305.09;5032686;28;20514;-80
2021/10/14 11:15:34;;;;;;;4.00;3.60;;;;;;;7.57;90.60;95294.00;5033034;28;20443;-80
2021/10/14 11:18:02;;;;;;;6.10;5.50;;;;;;;7.55;91.03;95294.13;5042185;28;20443;-80
2021/10/14 11:20:29;;;;;;;4.87;3.67;;;;;;;7.57;90.83;95289.63;5050595;28;20438;-80
2021/10/14 11:23:03;;;;;;;4.40;3.90;;;;;;;7.53;90.94;95289.94;5052566;28;20453;-80
2021/10/14 11:25:30;;;;;;;4.50;4.10;;;;;;;7.52;90.51;95290.84;5034300;28;20441;-80
2021/10/14 11:28:04;;;;;;;6.37;4.33;;;;;;;7.45;91.30;95282.59;5052553;28;20961;-80
2021/10/14 11:30:44;;;;;;;5.80;4.37;;;;;;;7.51;91.88;95283.94;5052627;28;20989;-80
2021/10/14 11:33:14;;;;;;;4.50;4.20;;;;;;;7.47;92.08;95286.75;5053524;28;20446;-79